This is the latest recevied weather packets stored in our database for station/object NG6B-2. If no packets are shown the sender has not sent any weather packets the latest 10 day(s).
| Time | Temp. | Humidity | Pressure | Rain* | Wind** | Luminosity | Snow |
|---|---|---|---|---|---|---|---|
| 1777509030 | 25.56° C | 7% | 1006.1 hPa | 0 mm | - | - | - |
| 1777507230 | 26.11° C | 7% | 1006.2 hPa | 0 mm | - | - | - |
| 1777505428 | 26.11° C | 6% | 1006.5 hPa | 0 mm | - | - | - |
| 1777503627 | 26.67° C | 7% | 1006.5 hPa | 0 mm | - | - | - |
| 1777501826 | 26.67° C | 8% | 1006.8 hPa | 0 mm | - | - | - |
| 1777500025 | 26.67° C | 7% | 1007.5 hPa | 0 mm | - | - | - |
| 1777498224 | 26.67° C | 7% | 1007.8 hPa | 0 mm | - | - | - |
| 1777496423 | 27.22° C | 6% | 1008.4 hPa | 0 mm | - | - | - |
| 1777494622 | 27.22° C | 6% | 1008.6 hPa | 0 mm | - | - | - |
| 1777492821 | 27.22° C | 6% | 1008.8 hPa | 0 mm | - | - | - |
| 1777491020 | 26.11° C | 7% | 1009.3 hPa | 0 mm | - | - | - |
| 1777489219 | 25° C | 9% | 1009.6 hPa | 0 mm | - | - | - |
| 1777487418 | 23.89° C | 11% | 1010 hPa | 0 mm | - | - | - |
| 1777485617 | 22.78° C | 14% | 1010.4 hPa | 0 mm | - | - | - |
| 1777483816 | 22.22° C | 15% | 1010.4 hPa | 0 mm | - | - | - |
| 1777482015 | 21.67° C | 17% | 1010.4 hPa | 0 mm | - | - | - |
| 1777480214 | 20.56° C | 18% | 1010.3 hPa | 0 mm | - | - | - |
| 1777478413 | 20° C | 19% | 1010.2 hPa | 0 mm | - | - | - |
| 1777476612 | 19.44° C | 20% | 1010.2 hPa | 0 mm | - | - | - |
| 1777474811 | 17.78° C | 26% | 1010.3 hPa | 0 mm | - | - | - |
| 1777473010 | 16.67° C | 27% | 1010.3 hPa | 0 mm | - | - | - |
| 1777471209 | 16.11° C | 26% | 1010.2 hPa | 0 mm | - | - | - |
| 1777469408 | 15.56° C | 26% | 1009.9 hPa | 0 mm | - | - | - |
| 1777467607 | 15° C | 25% | 1009.6 hPa | 0 mm | - | - | - |
| 1777465806 | 13.89° C | 27% | 1009.4 hPa | 0 mm | - | - | - |
* Rain latest hour (hover to see other rain measurements)
** Current wind speed in m/s (hover to see current wind gust speed)